Terminal Aerodrome Forecast
Issued by NWS

Home | Current Version | Previous Version | Text Only | Print | Product List | Glossary On
Versions: 1 2 3 4 5 6 7 8 9 10 11 12 13
502
FTUS42 KGSP 141125
TAFAND
TAF
KAND 141125Z 1412/1512 08006KT P6SM BKN100
     FM150500 08006KT P6SM OVC035 PROB30 1505/1510 4SM -SNPL OVC025
     FM151000 07005KT P6SM OVC025 PROB30 1510/1512 4SM -FZRA OVC015=

USA.gov is the U.S. government's official web portal to all federal, state and local government web resources and services.